Heywood, Victoria

7:41 PM AEST on September 01, 2015 (GMT +1000)
Portland, Australia | | Change Station
CLOSE
Current Station
Personal Weather Station
Location: Portland, VICTORIA
Elevation: 56 ft
Nearby Weather Stations

Elev 56 ft 38.36 °S, 141.59 °E | Updated 27 seconds ago

Overcast
Overcast
52.9 °F
Feels Like 52.9 °F
N
1.6
Wind Variable Wind from NNE
Gusts 5.6 mph

Today
High -- | Low -- °F
--% Chance of Precip.
Yesterday
High -- | Low -- °F
Precip. -- in
6:56 AM 6:11 PM
Waning Gibbous, 90% visible
Pressure 29.80 in
Visibility 6.2 miles
Clouds Mostly Cloudy 7500 ft
Overcast 9000 ft
Dew Point 48 °F
Humidity 83%
Rainfall in
Snow Depth Not available.
UV 0 out of 12
Pollen Not available.
Air Quality Not available.
Flu Activity Not available.
METAR YMTG 010900Z AUTO 03004KT 9999 // BKN075 OVC090 14/09 Q1009
Pressure 29.80 in
Visibility 6.2 miles
Clouds Mostly Cloudy 7500 ft
Overcast 9000 ft
Dew Point 48 °F
Humidity 83%
Rainfall in
Snow Depth Not available.
UV 0 out of 12
Pollen Not available.
Air Quality Not available.
Flu Activity Not available.
METAR YMTG 010900Z AUTO 03004KT 9999 // BKN075 OVC090 14/09 Q1009

10-Day Weather Forecast

×

Almanac

Astronomy

Sep. 01, 2015 Rise Set
Actual Time
Civil Twilight
Nautical Twilight
Astronomical Twilight
Moon
Length of Visible Light
Length of Day
Tomorrow will be .
, % of the Moon is Illuminated

Today's Extremes

Country Highs Country Lows

Community

WunderPhotos

Upload Photos

1,851,499 photos uploaded!

WunderBlogs® & News

Nearby

Air Quality

  Air Quality AQ Index Pollutant
Not available.

Snow Depth

Station Depth Elevation

Earthquake Activity

City Distance Mag. Time & Date
Minimum magnitude displayed is 2.5.

Coastal Water Temperatures

Place Temperature

Stations

Nearby Weather Stations

Station Location Temp. Windchill Dew Point Humidity Wind Precip. Elev Updated Type